Time;durP1;ratioP1;P1;durP2;ratioP2;P2;SDS_P1;SDS_P2;PMS_P1;PMS_P2;Temp;Humidity;BMP_temperature;BMP_pressure;BME280_temperature;BME280_humidity;BME280_pressure;Samples;Min_cycle;Max_cycle;Signal;HPM_P1;HPM_P2
2023/03/09 00:00:39;;;;;;;59.87;3.93;;;10.70;1.00;;;;;;5071471;28;20944;-69
2023/03/09 00:03:15;;;;;;;58.97;3.70;;;10.70;1.00;;;;;;5074654;28;20486;-68
2023/03/09 00:05:43;;;;;;;59.00;3.60;;;10.70;1.00;;;;;;5075853;28;20481;-69
2023/03/09 00:08:10;;;;;;;61.07;4.10;;;10.70;1.00;;;;;;5075933;28;20870;-69
2023/03/09 00:10:41;;;;;;;61.97;3.90;;;10.80;1.00;;;;;;5075602;28;20455;-69
2023/03/09 00:13:07;;;;;;;60.20;4.03;;;10.80;1.00;;;;;;5075920;28;20451;-69
2023/03/09 00:15:36;;;;;;;59.67;4.20;;;10.70;1.00;;;;;;5075573;28;20463;-69
2023/03/09 00:18:02;;;;;;;59.43;4.57;;;10.70;1.00;;;;;;5075516;28;20451;-69
2023/03/09 00:20:29;;;;;;;61.10;3.80;;;10.90;1.00;;;;;;5075365;28;20450;-69
2023/03/09 00:22:56;;;;;;;59.43;3.40;;;10.60;1.00;;;;;;5075650;28;20451;-69
2023/03/09 00:25:24;;;;;;;61.37;3.63;;;10.70;1.00;;;;;;5075303;28;20455;-69
2023/03/09 00:27:52;;;;;;;61.93;3.70;;;10.80;1.00;;;;;;5075378;28;20451;-70
2023/03/09 00:30:20;;;;;;;59.90;3.87;;;10.70;1.00;;;;;;5075127;28;20447;-70
2023/03/09 00:32:48;;;;;;;58.97;3.53;;;10.80;1.00;;;;;;5075308;28;20830;-70
2023/03/09 00:35:15;;;;;;;61.60;3.73;;;10.80;1.00;;;;;;5075221;28;20451;-73
2023/03/09 00:37:43;;;;;;;60.10;3.50;;;10.70;1.00;;;;;;5076224;28;20447;-72
2023/03/09 00:40:11;;;;;;;59.70;3.43;;;10.80;1.00;;;;;;5078265;28;20487;-73
2023/03/09 00:42:38;;;;;;;61.43;3.73;;;10.70;1.00;;;;;;5078829;28;20473;-73
2023/03/09 00:45:06;;;;;;;58.60;3.43;;;10.60;1.00;;;;;;5078223;28;20442;-72
2023/03/09 00:47:33;;;;;;;58.77;3.30;;;10.70;1.00;;;;;;5075552;28;20467;-73
2023/03/09 00:50:01;;;;;;;58.30;3.07;;;;;;;;;;5074647;28;20447;-71
2023/03/09 00:52:29;;;;;;;59.00;3.73;;;10.60;1.00;;;;;;5077165;28;20447;-70
2023/03/09 00:54:56;;;;;;;59.57;3.17;;;10.60;1.00;;;;;;5077953;28;20458;-72
2023/03/09 00:57:23;;;;;;;58.20;3.20;;;10.70;1.00;;;;;;5078026;28;20780;-72
2023/03/09 00:59:51;;;;;;;58.17;3.30;;;10.60;1.00;;;;;;5076083;28;20487;-69
2023/03/09 01:02:18;;;;;;;60.63;3.20;;;10.60;1.00;;;;;;5075664;28;20451;-69
2023/03/09 01:04:45;;;;;;;57.90;3.10;;;10.50;1.00;;;;;;5075321;28;20443;-70
2023/03/09 01:07:14;;;;;;;58.57;3.60;;;10.50;1.00;;;;;;5074967;28;20471;-69
2023/03/09 01:09:41;;;;;;;58.70;3.30;;;10.60;1.00;;;;;;5074645;28;20982;-70
2023/03/09 01:12:08;;;;;;;59.07;3.50;;;10.60;1.00;;;;;;5075203;28;20542;-69
2023/03/09 01:14:36;;;;;;;59.40;3.50;;;10.50;1.00;;;;;;5073819;28;20474;-69
2023/03/09 01:17:03;;;;;;;59.80;3.07;;;10.50;1.00;;;;;;5075217;28;20468;-69
2023/03/09 01:19:30;;;;;;;60.90;3.03;;;10.40;1.00;;;;;;5075112;28;20561;-69
2023/03/09 01:21:57;;;;;;;58.07;3.00;;;10.40;1.00;;;;;;5077452;28;20952;-70
2023/03/09 01:24:26;;;;;;;57.43;2.83;;;10.30;1.00;;;;;;5075726;28;20466;-69
2023/03/09 01:26:53;;;;;;;57.40;2.57;;;10.10;1.00;;;;;;5076264;28;20478;-71
2023/03/09 01:29:20;;;;;;;57.50;2.70;;;10.30;1.00;;;;;;5078259;28;20501;-72
2023/03/09 01:31:46;;;;;;;57.50;2.90;;;10.00;1.00;;;;;;5075200;28;20451;-73
2023/03/09 01:34:14;;;;;;;57.90;2.97;;;10.00;1.00;;;;;;5074672;28;20459;-73
2023/03/09 01:36:40;;;;;;;57.97;2.67;;;9.90;1.00;;;;;;5075256;28;20473;-72
2023/03/09 01:39:07;;;;;;;58.53;2.80;;;9.80;1.00;;;;;;5077435;28;20498;-72
2023/03/09 01:41:36;;;;;;;58.23;2.50;;;9.80;1.00;;;;;;5076270;28;20458;-72
2023/03/09 01:44:03;;;;;;;57.57;2.60;;;;;;;;;;5074759;28;20455;-73
2023/03/09 01:46:47;;;;;;;57.40;2.53;;;9.70;1.00;;;;;;5075190;28;20471;-72
2023/03/09 01:49:38;;;;;;;57.30;2.40;;;9.80;1.00;;;;;;5074085;28;20832;-72
2023/03/09 01:52:08;;;;;;;57.97;2.60;;;;;;;;;;5073850;28;20448;-72
2023/03/09 01:54:40;;;;;;;57.37;2.50;;;9.70;1.00;;;;;;5073685;28;20452;-72
2023/03/09 01:57:14;;;;;;;57.50;2.60;;;9.70;1.00;;;;;;5073873;28;20476;-72
2023/03/09 01:59:43;;;;;;;58.97;2.80;;;9.60;1.00;;;;;;5073600;28;20487;-72
2023/03/09 02:02:11;;;;;;;57.20;2.50;;;;;;;;;;5073654;28;20451;-72
2023/03/09 02:04:43;;;;;;;57.47;2.70;;;9.40;1.00;;;;;;5073710;28;20801;-72
2023/03/09 02:07:10;;;;;;;57.47;2.33;;;9.80;1.00;;;;;;5073497;28;20554;-72
2023/03/09 02:09:42;;;;;;;59.00;2.90;;;9.80;1.00;;;;;;5073655;28;20883;-72
2023/03/09 02:12:14;;;;;;;58.27;2.63;;;9.80;1.00;;;;;;5074141;28;20542;-72
2023/03/09 02:14:41;;;;;;;57.27;2.63;;;10.00;1.00;;;;;;5073869;28;20952;-72
2023/03/09 02:17:11;;;;;;;57.57;2.70;;;9.90;1.00;;;;;;5073807;28;20477;-72
2023/03/09 02:19:51;;;;;;;57.53;2.60;;;9.90;1.00;;;;;;5073414;28;21007;-72
2023/03/09 02:22:18;;;;;;;59.00;2.60;;;9.90;1.00;;;;;;5073968;28;20447;-72
2023/03/09 02:24:54;;;;;;;58.10;2.60;;;9.90;1.00;;;;;;5074023;28;20542;-71
2023/03/09 02:27:24;;;;;;;58.80;2.73;;;9.90;1.00;;;;;;5075021;28;20477;-70
2023/03/09 02:29:51;;;;;;;57.60;2.67;;;9.90;1.00;;;;;;5075311;28;20455;-70
2023/03/09 02:32:19;;;;;;;56.97;2.20;;;9.80;1.00;;;;;;5075797;28;21031;-71
2023/03/09 02:34:46;;;;;;;57.13;2.60;;;9.80;1.00;;;;;;5076688;28;20453;-73
2023/03/09 02:37:24;;;;;;;59.37;2.53;;;9.90;1.00;;;;;;5076833;28;20467;-74
2023/03/09 02:39:54;;;;;;;57.57;2.33;;;9.80;1.00;;;;;;5075603;28;20671;-73
2023/03/09 02:42:23;;;;;;;59.70;2.83;;;;;;;;;;5076033;28;20440;-71
2023/03/09 02:44:51;;;;;;;57.47;2.50;;;9.80;1.00;;;;;;5075562;28;20451;-73
2023/03/09 02:47:21;;;;;;;57.30;2.30;;;9.80;1.00;;;;;;5076000;28;20471;-73
2023/03/09 02:49:48;;;;;;;57.50;2.40;;;9.70;1.00;;;;;;5076387;28;20458;-72
2023/03/09 02:52:15;;;;;;;58.03;2.43;;;9.80;1.00;;;;;;5074435;28;20444;-73
2023/03/09 02:54:42;;;;;;;57.27;2.50;;;9.80;1.00;;;;;;5075596;28;20459;-73
2023/03/09 02:57:08;;;;;;;57.47;2.50;;;9.30;1.00;;;;;;5073926;28;20463;-73
2023/03/09 02:59:36;;;;;;;57.40;2.33;;;9.90;1.00;;;;;;5072762;28;20489;-73
2023/03/09 03:02:04;;;;;;;58.53;2.30;;;9.70;1.00;;;;;;5073411;28;20455;-73
2023/03/09 03:04:31;;;;;;;57.43;2.40;;;9.80;1.00;;;;;;5074374;28;20970;-73
2023/03/09 03:06:57;;;;;;;57.67;2.33;;;9.90;1.00;;;;;;5073122;28;20467;-73
2023/03/09 03:09:25;;;;;;;57.40;2.57;;;9.90;1.00;;;;;;5073169;28;20446;-73
2023/03/09 03:11:52;;;;;;;57.37;2.20;;;9.90;1.00;;;;;;5072988;28;20460;-73
2023/03/09 03:14:19;;;;;;;57.30;2.40;;;9.90;1.00;;;;;;5073729;28;20451;-74
2023/03/09 03:16:47;;;;;;;58.33;2.40;;;10.00;1.00;;;;;;5075282;28;20472;-73
2023/03/09 03:19:14;;;;;;;57.77;2.17;;;9.90;1.00;;;;;;5073701;28;20483;-71
2023/03/09 03:21:40;;;;;;;57.90;2.70;;;9.80;1.00;;;;;;5073861;28;20457;-70
2023/03/09 03:24:08;;;;;;;57.83;2.57;;;9.80;1.00;;;;;;5073611;28;20529;-69
2023/03/09 03:26:34;;;;;;;57.73;2.67;;;9.60;1.00;;;;;;5073665;28;20478;-69
2023/03/09 03:29:02;;;;;;;57.60;2.70;;;9.70;1.00;;;;;;5072309;28;20458;-69
2023/03/09 03:31:29;;;;;;;57.60;2.70;;;9.60;1.00;;;;;;5072408;28;20448;-70
2023/03/09 03:33:57;;;;;;;56.97;2.50;;;9.60;1.00;;;;;;5072112;28;20477;-72
2023/03/09 03:36:24;;;;;;;57.77;2.60;;;9.60;1.00;;;;;;5071259;28;20471;-72
2023/03/09 03:38:50;;;;;;;58.57;2.80;;;9.60;1.00;;;;;;5071809;28;20797;-72
2023/03/09 03:41:17;;;;;;;57.57;2.67;;;9.60;1.00;;;;;;5072235;28;20483;-72
2023/03/09 03:43:44;;;;;;;57.60;2.50;;;9.50;1.00;;;;;;5072531;28;20835;-73
2023/03/09 03:46:11;;;;;;;57.47;2.50;;;9.40;1.00;;;;;;5073244;28;20467;-73
2023/03/09 03:48:38;;;;;;;57.50;2.50;;;9.40;1.00;;;;;;5071478;28;20940;-73
2023/03/09 03:51:07;;;;;;;57.20;2.50;;;;;;;;;;5072684;28;20444;-73
2023/03/09 03:53:34;;;;;;;61.50;3.03;;;9.40;1.00;;;;;;5072496;28;20451;-73
2023/03/09 03:56:02;;;;;;;57.47;2.70;;;9.40;1.00;;;;;;5072614;28;20561;-73
2023/03/09 03:58:29;;;;;;;59.70;3.00;;;9.20;1.00;;;;;;5072639;28;20493;-73
2023/03/09 04:00:57;;;;;;;61.00;2.77;;;9.30;1.00;;;;;;5071904;28;20566;-74
2023/03/09 04:03:24;;;;;;;58.07;2.70;;;9.20;1.00;;;;;;5071764;28;20452;-73
2023/03/09 04:05:51;;;;;;;59.83;3.10;;;9.30;1.00;;;;;;5071936;28;20467;-74
2023/03/09 04:08:19;;;;;;;57.70;2.50;;;9.10;1.00;;;;;;5071705;28;20443;-74
2023/03/09 04:10:46;;;;;;;59.30;2.77;;;9.20;1.00;;;;;;5071351;28;20451;-74
2023/03/09 04:13:13;;;;;;;60.00;2.83;;;9.40;1.00;;;;;;5071736;28;20952;-73
2023/03/09 04:15:39;;;;;;;59.47;2.70;;;9.20;1.00;;;;;;5071553;28;20471;-73
2023/03/09 04:18:07;;;;;;;58.53;3.10;;;9.20;1.00;;;;;;5071757;28;20479;-73
2023/03/09 04:20:34;;;;;;;58.43;2.97;;;9.20;1.00;;;;;;5072478;28;20486;-73
2023/03/09 04:23:01;;;;;;;58.43;3.00;;;9.30;1.00;;;;;;5072380;28;20451;-73
2023/03/09 04:25:29;;;;;;;58.80;3.20;;;9.30;1.00;;;;;;5072133;28;20839;-73
2023/03/09 04:27:56;;;;;;;59.00;3.10;;;9.30;1.00;;;;;;5071725;28;20450;-73
2023/03/09 04:30:23;;;;;;;61.63;3.60;;;9.30;1.00;;;;;;5071210;28;20444;-73
2023/03/09 04:32:50;;;;;;;60.40;2.80;;;9.40;1.00;;;;;;5071731;28;20450;-73
2023/03/09 04:35:17;;;;;;;60.70;3.50;;;8.50;1.00;;;;;;5071558;28;20447;-74
2023/03/09 04:37:45;;;;;;;59.77;3.37;;;9.30;1.00;;;;;;5072300;28;20455;-73
2023/03/09 04:40:13;;;;;;;63.00;3.60;;;9.40;1.00;;;;;;5071526;28;20855;-74
2023/03/09 04:42:41;;;;;;;60.73;3.30;;;9.40;1.00;;;;;;5071353;28;20449;-74
2023/03/09 04:45:09;;;;;;;59.07;3.20;;;9.30;1.00;;;;;;5071517;28;21015;-74
2023/03/09 04:47:36;;;;;;;61.97;3.70;;;;;;;;;;5059294;22;20860;-74
2023/03/09 04:50:03;;;;;;;62.17;3.70;;;;;;;;;;5054749;28;20436;-76
2023/03/09 04:52:30;;;;;;;60.50;3.20;;;9.40;1.00;;;;;;5055052;28;20444;-76
2023/03/09 04:54:57;;;;;;;59.40;3.13;;;9.30;1.00;;;;;;5054836;28;20539;-76
2023/03/09 04:57:24;;;;;;;60.50;3.60;;;9.40;1.00;;;;;;5054665;28;20996;-76
2023/03/09 04:59:52;;;;;;;62.77;3.70;;;9.40;1.00;;;;;;5054578;28;20484;-75
2023/03/09 05:02:19;;;;;;;61.07;4.20;;;9.30;1.00;;;;;;5054665;28;20534;-75
2023/03/09 05:04:46;;;;;;;64.60;4.20;;;9.40;1.00;;;;;;5054820;28;20824;-75
2023/03/09 05:07:12;;;;;;;61.57;3.70;;;9.40;1.00;;;;;;5054491;28;20472;-75
2023/03/09 05:09:39;;;;;;;59.60;3.37;;;9.30;1.00;;;;;;5054141;28;20444;-76
2023/03/09 05:12:06;;;;;;;62.97;3.67;;;9.30;1.00;;;;;;5054328;28;20448;-76
2023/03/09 05:14:33;;;;;;;62.90;3.97;;;9.40;1.00;;;;;;5054662;28;20530;-76
2023/03/09 05:17:01;;;;;;;66.40;3.40;;;9.40;1.00;;;;;;5054665;28;20472;-76
2023/03/09 05:19:28;;;;;;;63.13;4.23;;;9.40;1.00;;;;;;5054035;28;20535;-75
2023/03/09 05:21:55;;;;;;;64.47;4.40;;;9.30;1.00;;;;;;5054450;28;20539;-76
2023/03/09 05:24:22;;;;;;;68.33;4.10;;;9.30;1.00;;;;;;5054213;28;20455;-76
2023/03/09 05:26:49;;;;;;;61.40;3.80;;;9.30;1.00;;;;;;5054367;28;20479;-76
2023/03/09 05:29:16;;;;;;;65.10;3.43;;;9.30;1.00;;;;;;5054056;28;20452;-75
2023/03/09 05:31:42;;;;;;;65.23;3.80;;;9.30;1.00;;;;;;5054321;28;20440;-75
2023/03/09 05:34:10;;;;;;;63.13;3.60;;;9.30;1.00;;;;;;5054078;28;20448;-76
2023/03/09 05:36:37;;;;;;;64.73;4.73;;;9.40;1.00;;;;;;5054033;28;20525;-76
2023/03/09 05:39:04;;;;;;;60.03;3.63;;;;;;;;;;5053582;28;20447;-76
2023/03/09 05:41:31;;;;;;;59.53;3.70;;;9.40;1.00;;;;;;5054203;28;20487;-78
2023/03/09 05:44:00;;;;;;;61.20;3.47;;;;;;;;;;5054231;28;20554;-76
2023/03/09 05:46:27;;;;;;;58.93;3.63;;;9.50;1.00;;;;;;5053749;28;20482;-76
2023/03/09 05:48:54;;;;;;;63.00;4.23;;;;;;;;;;5053563;28;20831;-77
2023/03/09 05:51:22;;;;;;;63.90;4.00;;;10.20;1.00;;;;;;5053860;28;20444;-76
2023/03/09 05:53:49;;;;;;;66.20;4.00;;;9.50;1.00;;;;;;5053747;28;20555;-76
2023/03/09 05:56:16;;;;;;;62.00;3.70;;;9.60;1.00;;;;;;5053795;28;20508;-74
2023/03/09 05:58:42;;;;;;;63.80;3.67;;;9.50;1.00;;;;;;5053451;28;20445;-74
2023/03/09 06:01:18;;;;;;;64.70;4.23;;;9.60;1.00;;;;;;5052976;28;20490;-75
2023/03/09 06:03:45;;;;;;;63.50;5.03;;;9.70;1.00;;;;;;5053618;28;20824;-75
2023/03/09 06:06:12;;;;;;;61.83;4.23;;;9.60;1.00;;;;;;5053069;28;20476;-75
2023/03/09 06:08:40;;;;;;;61.73;4.47;;;9.50;1.00;;;;;;5053143;28;20452;-75
2023/03/09 06:11:07;;;;;;;61.53;4.07;;;9.60;1.00;;;;;;5053676;28;20456;-75
2023/03/09 06:13:34;;;;;;;62.90;4.23;;;9.60;1.00;;;;;;5053512;28;20456;-75
2023/03/09 06:16:03;;;;;;;63.83;4.10;;;9.70;1.00;;;;;;5053277;28;20504;-75
2023/03/09 06:18:30;;;;;;;65.47;4.60;;;9.70;1.00;;;;;;5053160;28;20444;-75
2023/03/09 06:21:01;;;;;;;63.73;3.80;;;;;;;;;;5052980;28;20475;-75
2023/03/09 06:23:28;;;;;;;61.57;4.00;;;9.90;1.00;;;;;;5053462;28;20460;-76
2023/03/09 06:25:56;;;;;;;61.17;3.80;;;9.90;1.00;;;;;;5053030;28;20473;-76
2023/03/09 06:28:24;;;;;;;61.93;4.67;;;10.00;1.00;;;;;;5052967;28;20452;-76
2023/03/09 06:30:51;;;;;;;60.50;4.00;;;10.00;1.00;;;;;;5052706;28;20459;-75
2023/03/09 06:33:18;;;;;;;60.67;3.80;;;10.00;1.00;;;;;;5052812;28;20448;-76
2023/03/09 06:35:44;;;;;;;61.97;3.43;;;10.20;1.00;;;;;;5053261;28;20472;-76
2023/03/09 06:38:11;;;;;;;67.30;4.50;;;10.20;1.00;;;;;;5052393;28;20444;-75
2023/03/09 06:40:38;;;;;;;65.33;4.07;;;10.20;1.00;;;;;;5052643;28;20486;-76
2023/03/09 06:43:06;;;;;;;62.67;4.10;;;10.20;1.00;;;;;;5052645;28;20448;-76
2023/03/09 06:45:34;;;;;;;63.47;4.43;;;10.20;1.00;;;;;;5052637;28;20504;-76
2023/03/09 06:48:00;;;;;;;64.90;4.50;;;10.30;1.00;;;;;;5052560;28;20456;-76
2023/03/09 06:50:27;;;;;;;59.57;3.60;;;10.40;1.00;;;;;;5052489;28;20475;-76
2023/03/09 06:52:54;;;;;;;62.90;4.63;;;10.40;1.00;;;;;;5052656;28;20444;-77
2023/03/09 06:55:21;;;;;;;62.83;5.03;;;10.40;1.00;;;;;;5052430;28;20506;-76
2023/03/09 06:57:48;;;;;;;66.33;4.47;;;10.40;1.00;;;;;;5052532;28;20820;-76
2023/03/09 07:00:17;;;;;;;62.67;4.00;;;10.30;1.00;;;;;;5051981;28;20452;-76
2023/03/09 07:02:44;;;;;;;63.63;4.33;;;10.30;1.00;;;;;;5052369;28;20455;-76
2023/03/09 07:05:11;;;;;;;62.77;4.27;;;10.40;1.00;;;;;;5052499;28;20448;-76
2023/03/09 07:07:38;;;;;;;63.27;3.60;;;10.40;1.00;;;;;;5052502;28;20532;-76
2023/03/09 07:10:05;;;;;;;63.77;3.60;;;10.40;1.00;;;;;;5052030;28;20448;-77
2023/03/09 07:12:33;;;;;;;61.77;3.60;;;10.40;1.00;;;;;;5052226;28;20452;-76
2023/03/09 07:14:59;;;;;;;63.27;4.33;;;10.30;1.00;;;;;;5052197;28;20448;-76
2023/03/09 07:17:28;;;;;;;63.30;3.97;;;10.30;1.00;;;;;;5052121;28;20989;-77
2023/03/09 07:19:56;;;;;;;68.00;4.63;;;10.40;1.00;;;;;;5051874;28;20457;-76
2023/03/09 07:22:23;;;;;;;61.50;3.90;;;10.50;1.00;;;;;;5052050;28;20491;-77
2023/03/09 07:24:50;;;;;;;62.27;3.47;;;10.60;1.00;;;;;;5052083;28;20528;-77
2023/03/09 07:27:18;;;;;;;69.67;5.13;;;10.70;1.00;;;;;;5051981;28;20475;-76
2023/03/09 07:29:45;;;;;;;61.40;3.83;;;10.60;1.00;;;;;;5051875;28;20876;-77
2023/03/09 07:32:13;;;;;;;61.87;4.50;;;10.60;1.00;;;;;;5052199;28;20828;-77
2023/03/09 07:34:42;;;;;;;65.63;4.13;;;10.70;1.00;;;;;;5051818;28;20458;-76
2023/03/09 07:37:08;;;;;;;59.80;3.40;;;10.80;1.00;;;;;;5051973;28;20563;-77
2023/03/09 07:39:35;;;;;;;61.70;3.60;;;10.80;1.00;;;;;;5051568;28;20551;-77
2023/03/09 07:42:02;;;;;;;61.20;4.10;;;10.80;1.00;;;;;;5051641;28;20851;-76
2023/03/09 07:44:29;;;;;;;61.57;3.87;;;10.70;1.00;;;;;;5052002;28;20456;-76
2023/03/09 07:46:56;;;;;;;61.07;3.50;;;10.70;1.00;;;;;;5051667;28;20507;-76
2023/03/09 07:49:23;;;;;;;61.50;3.70;;;10.70;1.00;;;;;;5051524;28;20941;-76
2023/03/09 07:51:51;;;;;;;60.97;3.73;;;10.90;1.00;;;;;;5051695;28;20535;-75
2023/03/09 07:54:18;;;;;;;62.20;3.70;;;10.90;1.00;;;;;;5051715;28;20445;-74
2023/03/09 07:56:50;;;;;;;60.47;3.47;;;11.00;1.00;;;;;;5051541;28;20468;-74
2023/03/09 07:59:19;;;;;;;61.63;3.53;;;11.00;1.00;;;;;;5051693;28;20448;-74
2023/03/09 08:01:45;;;;;;;62.30;3.63;;;11.10;1.00;;;;;;5051747;28;20534;-75
2023/03/09 08:04:13;;;;;;;64.87;3.93;;;11.20;1.00;;;;;;5051857;28;20474;-72
2023/03/09 08:06:40;;;;;;;61.67;3.23;;;11.20;1.00;;;;;;5051817;28;20772;-73
2023/03/09 08:09:14;;;;;;;61.53;3.40;;;11.30;1.00;;;;;;5051310;28;20462;-73
2023/03/09 08:11:41;;;;;;;63.80;3.93;;;11.40;1.00;;;;;;5051863;28;20953;-74
2023/03/09 08:14:07;;;;;;;59.40;3.20;;;11.50;1.00;;;;;;5051749;28;20444;-74
2023/03/09 08:16:34;;;;;;;61.73;3.50;;;12.00;1.00;;;;;;5051881;28;20576;-74
2023/03/09 08:19:01;;;;;;;59.33;2.80;;;11.80;1.00;;;;;;5051411;28;20506;-73
2023/03/09 08:21:28;;;;;;;59.70;3.23;;;11.70;1.00;;;;;;5051682;28;20578;-73
2023/03/09 08:23:55;;;;;;;61.70;3.50;;;11.70;1.00;;;;;;5053989;28;20455;-72
2023/03/09 08:26:23;;;;;;;63.20;3.53;;;11.70;1.00;;;;;;5053625;28;20475;-73
2023/03/09 08:28:50;;;;;;;60.63;3.27;;;12.00;1.00;;;;;;5054092;28;20448;-75
2023/03/09 08:31:18;;;;;;;60.37;3.70;;;12.20;1.00;;;;;;5054926;28;20444;-71
2023/03/09 08:33:45;;;;;;;61.37;3.30;;;12.30;1.00;;;;;;5055051;28;20461;-72
2023/03/09 08:36:15;;;;;;;60.90;4.67;;;12.30;1.00;;;;;;5054539;28;20475;-73
2023/03/09 08:38:42;;;;;;;59.00;3.20;;;13.30;1.00;;;;;;5054865;28;20443;-73
2023/03/09 08:41:09;;;;;;;60.23;3.33;;;12.30;1.00;;;;;;5055032;28;20484;-72
2023/03/09 08:43:37;;;;;;;59.50;3.30;;;12.20;1.00;;;;;;5054820;28;20448;-73
2023/03/09 08:46:04;;;;;;;58.10;2.80;;;12.20;1.00;;;;;;5054739;28;20997;-72
2023/03/09 08:48:31;;;;;;;65.60;3.87;;;;;;;;;;5054507;28;20966;-73
2023/03/09 08:51:00;;;;;;;66.63;3.13;;;12.30;1.00;;;;;;5054610;28;20539;-72
2023/03/09 08:53:27;;;;;;;59.63;2.80;;;12.40;1.00;;;;;;5054789;28;20983;-72
2023/03/09 08:55:54;;;;;;;62.30;3.00;;;12.10;1.00;;;;;;5054689;28;20476;-72
2023/03/09 08:58:21;;;;;;;61.37;3.07;;;12.10;1.00;;;;;;5054614;28;20448;-74
2023/03/09 09:00:50;;;;;;;61.00;3.20;;;;;;;;;;5054387;28;20487;-72
2023/03/09 09:03:16;;;;;;;60.90;3.20;;;12.40;1.00;;;;;;5054514;28;20968;-72
2023/03/09 09:05:43;;;;;;;59.87;3.10;;;12.50;1.00;;;;;;5054798;28;20475;-74
2023/03/09 09:08:10;;;;;;;60.07;3.50;;;12.40;1.00;;;;;;5054383;28;20448;-74
2023/03/09 09:10:40;;;;;;;60.47;3.10;;;12.50;1.00;;;;;;5052300;28;20452;-74
2023/03/09 09:13:07;;;;;;;58.07;2.93;;;;;;;;;;5054456;28;20459;-75
2023/03/09 09:15:34;;;;;;;60.53;3.60;;;;;;;;;;5054180;28;20520;-74
2023/03/09 09:18:02;;;;;;;59.53;2.97;;;;;;;;;;5054083;28;21003;-73
2023/03/09 09:20:30;;;;;;;59.43;3.10;;;;;;;;;;5054180;28;20452;-73
2023/03/09 09:22:57;;;;;;;61.90;3.23;;;;;;;;;;5054255;28;21008;-73
2023/03/09 09:25:24;;;;;;;58.80;3.03;;;;;;;;;;5054125;28;20453;-74
2023/03/09 09:27:51;;;;;;;60.47;3.17;;;;;;;;;;5054112;28;20453;-73
2023/03/09 09:30:19;;;;;;;57.87;2.40;;;;;;;;;;5053609;28;20448;-72
2023/03/09 09:32:46;;;;;;;61.53;3.00;;;11.90;1.00;;;;;;5054132;28;20452;-73
2023/03/09 09:35:14;;;;;;;58.80;2.60;;;;;;;;;;5052643;28;20456;-74
2023/03/09 09:37:42;;;;;;;62.27;3.13;;;12.90;1.00;;;;;;5053786;28;20452;-74
2023/03/09 09:40:11;;;;;;;60.97;3.00;;;;;;;;;;5053419;28;20805;-73
2023/03/09 09:42:40;;;;;;;61.33;2.93;;;;;;;;;;5051759;28;21026;-73
2023/03/09 09:45:15;;;;;;;57.90;2.73;;;;;;;;;;5053579;28;20462;-73
2023/03/09 09:47:42;;;;;;;58.47;2.90;;;;;;;;;;5053570;28;20943;-73
2023/03/09 09:50:13;;;;;;;58.33;2.90;;;;;;;;;;5053351;28;20456;-72
2023/03/09 09:52:47;;;;;;;59.47;3.13;;;12.40;1.00;;;;;;5053673;28;20444;-74
2023/03/09 09:55:18;;;;;;;60.13;3.57;;;;;;;;;;5053415;28;20440;-74
2023/03/09 09:57:46;;;;;;;58.93;2.90;;;;;;;;;;5053463;28;20440;-74
2023/03/09 10:00:16;;;;;;;64.70;3.20;;;;;;;;;;5053156;28;20449;-73
2023/03/09 10:02:54;;;;;;;60.07;3.10;;;;;;;;;;5053219;28;20490;-74
2023/03/09 10:05:25;;;;;;;58.63;2.70;;;;;;;;;;5053161;28;20960;-74
2023/03/09 10:07:54;;;;;;;58.80;2.93;;;;;;;;;;5053050;28;20539;-74
2023/03/09 10:10:23;;;;;;;58.40;2.90;;;;;;;;;;5053442;28;20539;-73
2023/03/09 10:12:50;;;;;;;59.60;2.73;;;12.30;1.00;;;;;;5052518;28;20883;-73
2023/03/09 10:15:25;;;;;;;58.77;2.97;;;12.50;1.00;;;;;;5052062;28;20543;-73
2023/03/09 10:17:54;;;;;;;60.40;3.40;;;;;;;;;;5053006;28;20458;-73
2023/03/09 10:20:24;;;;;;;59.17;3.20;;;;;;;;;;5052386;28;20949;-73
2023/03/09 10:22:53;;;;;;;58.47;3.00;;;;;;;;;;5053205;28;20487;-73
2023/03/09 10:25:22;;;;;;;59.10;2.70;;;;;;;;;;5052828;28;20987;-73
2023/03/09 10:27:55;;;;;;;59.10;2.70;;;;;;;;;;5053012;28;20454;-74
2023/03/09 10:30:26;;;;;;;60.13;2.70;;;;;;;;;;5052597;28;20502;-74
2023/03/09 10:32:57;;;;;;;58.27;2.80;;;12.00;1.00;;;;;;5052636;28;20936;-74
2023/03/09 10:35:29;;;;;;;58.57;3.10;;;12.70;1.00;;;;;;5052753;28;20839;-73
2023/03/09 10:37:56;;;;;;;59.90;2.80;;;;;;;;;;5052574;28;20448;-72
2023/03/09 10:40:25;;;;;;;60.80;3.50;;;;;;;;;;5052672;28;20461;-74
2023/03/09 10:42:53;;;;;;;60.70;3.00;;;;;;;;;;5052476;28;20495;-72
2023/03/09 10:45:23;;;;;;;57.80;2.97;;;;;;;;;;5050207;28;20448;-73
2023/03/09 10:48:09;;;;;;;60.80;2.70;;;;;;;;;;5052500;28;20452;-73
2023/03/09 10:50:37;;;;;;;60.90;3.37;;;;;;;;;;5052449;28;20537;-73
2023/03/09 10:53:23;;;;;;;60.00;3.13;;;;;;;;;;5052476;28;20444;-72
2023/03/09 10:55:53;;;;;;;59.40;2.83;;;;;;;;;;5052546;28;20472;-73
2023/03/09 10:58:21;;;;;;;58.60;2.83;;;;;;;;;;5052325;28;20448;-73
2023/03/09 11:00:50;;;;;;;60.17;3.20;;;;;;;;;;5052101;28;20492;-73
2023/03/09 11:03:33;;;;;;;57.77;2.63;;;;;;;;;;5052141;28;20488;-73
2023/03/09 11:06:24;;;;;;;58.73;3.30;;;;;;;;;;5051929;28;20563;-74
2023/03/09 11:08:55;;;;;;;59.57;3.20;;;;;;;;;;5027596;28;21069;-74
2023/03/09 11:11:25;;;;;;;58.50;3.00;;;;;;;;;;5052174;28;20455;-73
2023/03/09 11:13:53;;;;;;;58.97;2.90;;;;;;;;;;5052366;28;20452;-72
2023/03/09 11:16:22;;;;;;;58.40;3.07;;;;;;;;;;5050140;28;20468;-74
2023/03/09 11:18:49;;;;;;;58.40;2.87;;;;;;;;;;5051560;28;20447;-72
2023/03/09 11:21:22;;;;;;;58.93;2.60;;;;;;;;;;5051964;28;20444;-74
2023/03/09 11:23:51;;;;;;;58.67;3.30;;;;;;;;;;5052136;28;20471;-74
2023/03/09 11:26:23;;;;;;;59.93;3.50;;;;;;;;;;5051895;28;20468;-73
2023/03/09 11:28:58;;;;;;;59.13;2.90;;;17.10;1.00;;;;;;5051535;28;20535;-75
2023/03/09 11:31:26;;;;;;;59.00;3.20;;;;;;;;;;5051703;28;20443;-72
2023/03/09 11:33:57;;;;;;;60.00;3.53;;;;;;;;;;5051976;28;20479;-75
2023/03/09 11:36:27;;;;;;;58.50;3.13;;;;;;;;;;5051693;28;20517;-72
2023/03/09 11:38:55;;;;;;;58.20;2.70;;;;;;;;;;5051148;28;20440;-73
2023/03/09 11:41:25;;;;;;;60.07;2.87;;;;;;;;;;5051667;28;20444;-73
2023/03/09 11:43:55;;;;;;;59.27;3.20;;;;;;;;;;5051907;28;20456;-73
2023/03/09 11:46:22;;;;;;;60.17;3.20;;;;;;;;;;5051699;28;20476;-74
2023/03/09 11:48:52;;;;;;;59.00;3.07;;;;;;;;;;5049330;28;20948;-72
2023/03/09 11:51:21;;;;;;;59.00;3.10;;;;;;;;;;5051503;28;20436;-73
2023/03/09 11:53:51;;;;;;;60.93;3.20;;;;;;;;;;5051459;28;20440;-73
2023/03/09 11:56:20;;;;;;;60.43;3.30;;;;;;;;;;5051637;28;20475;-74
2023/03/09 11:58:49;;;;;;;60.50;3.07;;;;;;;;;;5050358;28;20843;-73
2023/03/09 12:01:22;;;;;;;58.50;2.73;;;;;;;;;;5051299;28;20453;-73
2023/03/09 12:03:51;;;;;;;61.53;3.20;;;;;;;;;;5051383;28;20600;-73
2023/03/09 12:06:37;;;;;;;61.00;3.03;;;;;;;;;;5051699;28;20832;-73
2023/03/09 12:09:07;;;;;;;59.60;2.70;;;;;;;;;;5051281;28;20451;-73
2023/03/09 12:11:38;;;;;;;58.87;3.03;;;;;;;;;;5051421;28;21008;-73
2023/03/09 12:14:07;;;;;;;58.27;2.60;;;;;;;;;;5051400;28;20456;-73
2023/03/09 12:16:36;;;;;;;58.17;3.10;;;;;;;;;;5051419;28;20567;-73
2023/03/09 12:19:04;;;;;;;59.20;3.27;;;;;;;;;;5048544;28;20473;-75
2023/03/09 12:21:33;;;;;;;58.17;2.87;;;;;;;;;;5051631;28;20456;-70
2023/03/09 12:24:03;;;;;;;58.30;2.60;;;;;;;;;;5051194;28;20850;-73
2023/03/09 12:26:31;;;;;;;60.47;3.37;;;;;;;;;;5051432;28;20468;-72
2023/03/09 12:28:59;;;;;;;58.60;2.80;;;;;;;;;;5050893;28;20534;-74
2023/03/09 12:31:31;;;;;;;58.30;2.80;;;;;;;;;;5051118;28;20453;-74
2023/03/09 12:34:07;;;;;;;58.20;2.70;;;;;;;;;;5050894;28;20456;-73
2023/03/09 12:36:35;;;;;;;60.30;2.63;;;;;;;;;;5051301;28;20474;-73
2023/03/09 12:39:21;;;;;;;58.90;2.97;;;;;;;;;;5049710;28;20451;-74
2023/03/09 12:41:56;;;;;;;58.33;3.00;;;;;;;;;;5050639;28;20444;-72
2023/03/09 12:44:38;;;;;;;61.20;3.43;;;;;;;;;;5050164;28;20530;-72
2023/03/09 12:47:06;;;;;;;60.00;3.13;;;;;;;;;;5049791;28;20483;-71
2023/03/09 12:49:36;;;;;;;57.67;2.70;;;;;;;;;;5047802;28;21024;-73
2023/03/09 12:52:18;;;;;;;60.57;2.90;;;;;;;;;;5050948;28;20448;-70
2023/03/09 12:54:45;;;;;;;60.30;2.80;;;;;;;;;;5047308;28;20964;-74
2023/03/09 12:57:20;;;;;;;59.00;3.20;;;;;;;;;;5050987;28;20468;-72
2023/03/09 12:59:49;;;;;;;60.47;3.30;;;;;;;;;;5049527;28;20551;-73
2023/03/09 13:02:24;;;;;;;60.30;3.37;;;;;;;;;;5050690;28;20484;-73
2023/03/09 13:05:06;;;;;;;58.40;2.93;;;;;;;;;;5049885;28;20827;-73
2023/03/09 13:07:35;;;;;;;58.30;2.90;;;;;;;;;;5049993;28;20478;-71
2023/03/09 13:10:02;;;;;;;59.77;3.23;;;;;;;;;;5051482;28;20826;-71
2023/03/09 13:12:30;;;;;;;61.00;3.60;;;;;;;;;;5054218;28;20959;-72
2023/03/09 13:15:15;;;;;;;59.30;3.20;;;;;;;;;;5054386;28;20454;-71
2023/03/09 13:17:42;;;;;;;59.77;3.30;;;;;;;;;;5038322;28;20456;-72
2023/03/09 13:20:16;;;;;;;58.37;3.00;;;;;;;;;;5053766;28;20456;-73
2023/03/09 13:22:45;;;;;;;60.43;3.30;;;;;;;;;;5052126;28;20567;-73
2023/03/09 13:25:24;;;;;;;63.30;3.70;;;;;;;;;;5054099;28;20444;-72
2023/03/09 13:27:53;;;;;;;59.73;3.40;;;;;;;;;;5053792;28;20447;-69
2023/03/09 13:30:24;;;;;;;62.20;3.63;;;;;;;;;;5053648;28;20937;-72